Terminal Aerodrome Forecast
Issued by NWS Wilmington, OH

Home | Current Version | Previous Version | Text Only | Print | Product List | Glossary On
Versions: 1 2 3 4 5 6 7 8 9 10 11 12 13 14 15 16 17 18
241
FTUS41 KILN 120529
TAFCMH
TAF
KCMH 120529Z 1206/1306 00000KT P6SM BKN120
     FM121500 22007KT P6SM BKN035
     FM122000 27012G22KT 5SM -SHSN OVC018
     FM122300 30018G29KT 1SM -SHSN OVC018
     FM130300 31016G25KT 4SM -SHSN OVC025=

USA.gov is the U.S. government's official web portal to all federal, state and local government web resources and services.